Time;durP1;ratioP1;P1;durP2;ratioP2;P2;SDS_P1;SDS_P2;PMS_P1;PMS_P2;Temp;Humidity;BMP_temperature;BMP_pressure;BME280_temperature;BME280_humidity;BME280_pressure;Samples;Min_cycle;Max_cycle;Signal;HPM_P1;HPM_P2
2020/12/22 00:02:35;;;;;;;23.00;14.28;;;;;;;-1.89;84.07;101685.66;1780480;80;21349;-79
2020/12/22 00:05:40;;;;;;;22.65;13.22;;;;;;;-1.86;83.91;101685.06;1780873;79;21362;-78
2020/12/22 00:08:46;;;;;;;24.87;11.90;;;;;;;-1.86;83.75;101685.06;1781708;80;21180;-79
2020/12/22 00:11:51;;;;;;;18.98;12.82;;;;;;;-1.85;83.63;101686.80;1781733;80;21263;-79
2020/12/22 00:14:58;;;;;;;24.00;14.15;;;;;;;-1.87;83.56;101690.51;1780518;80;21540;-79
2020/12/22 00:18:04;;;;;;;28.27;14.55;;;;;;;-1.87;83.55;101687.35;1780426;80;21232;-78
2020/12/22 00:21:11;;;;;;;23.62;12.73;;;;;;;-1.87;83.57;101680.64;1781630;80;21339;-79
2020/12/22 00:24:18;;;;;;;22.82;14.10;;;;;;;-1.86;83.55;101682.38;1781578;80;21282;-79
2020/12/22 00:27:23;;;;;;;25.00;12.90;;;;;;;-1.83;83.59;101679.59;1781841;80;21125;-78
2020/12/22 00:30:28;;;;;;;23.55;13.05;;;;;;;-1.84;83.37;101676.47;1781833;80;21327;-78
2020/12/22 00:33:32;;;;;;;22.15;12.98;;;;;;;-1.84;83.37;101683.18;1780720;80;21331;-79
2020/12/22 00:36:39;;;;;;;21.68;12.50;;;;;;;-1.89;83.35;101679.82;1781614;80;21228;-78
2020/12/22 00:39:44;;;;;;;23.27;13.25;;;;;;;-1.93;83.52;101680.01;1781230;80;21398;-78
2020/12/22 00:42:50;;;;;;;19.95;12.07;;;;;;;-1.92;83.66;101684.46;1777410;80;21830;-78
2020/12/22 00:45:56;;;;;;;26.15;13.72;;;;;;;-1.92;83.59;101683.98;1770991;81;21295;-78
2020/12/22 00:49:02;;;;;;;15.80;10.63;;;;;;;-1.93;83.53;101687.61;1771330;81;21303;-78
2020/12/22 00:52:07;;;;;;;24.27;13.38;;;;;;;-1.92;83.61;101693.38;1771358;81;21370;-77
2020/12/22 00:55:13;;;;;;;21.15;12.50;;;;;;;-1.89;83.64;101702.61;1771183;81;21358;-78
2020/12/22 00:58:18;;;;;;;20.68;10.65;;;;;;;-1.85;83.56;101693.98;1771276;81;21786;-78
2020/12/22 01:01:23;;;;;;;23.45;12.25;;;;;;;-1.84;83.47;101693.91;1771405;81;21961;-78
2020/12/22 01:04:28;;;;;;;25.40;12.68;;;;;;;-1.82;83.37;101690.71;1770189;81;21869;-78
2020/12/22 01:07:34;;;;;;;22.70;12.13;;;;;;;-1.84;83.29;101696.59;1771536;81;21584;-78
2020/12/22 01:10:40;;;;;;;20.05;12.45;;;;;;;-1.84;83.25;101684.99;1769963;81;21305;-79
2020/12/22 01:13:46;;;;;;;22.27;11.63;;;;;;;-1.89;83.32;101682.97;1769699;81;21949;-79
2020/12/22 01:16:53;;;;;;;21.90;12.10;;;;;;;-1.92;83.42;101685.33;1770774;80;21303;-79
2020/12/22 01:20:00;;;;;;;17.57;10.55;;;;;;;-1.93;83.52;101682.25;1770016;81;21306;-79
2020/12/22 01:23:05;;;;;;;18.20;10.98;;;;;;;-1.92;83.64;101679.09;1770006;81;21821;-78
2020/12/22 01:26:12;;;;;;;17.70;11.68;;;;;;;-1.93;83.61;101688.95;1769914;81;21291;-78
2020/12/22 01:29:19;;;;;;;18.27;11.53;;;;;;;-1.91;83.64;101683.05;1771333;81;21327;-79
2020/12/22 01:33:05;;;;;;;25.45;12.43;;;;;;;-1.88;83.67;101684.74;1769901;81;21196;-79
2020/12/22 01:36:11;;;;;;;22.22;13.53;;;;;;;-1.88;83.57;101678.91;1771427;81;21303;-79
2020/12/22 01:39:18;;;;;;;23.15;11.68;;;;;;;-1.90;83.66;101674.06;1771495;81;21288;-79
2020/12/22 01:42:24;;;;;;;22.35;12.03;;;;;;;-1.89;83.69;101671.77;1771436;81;21181;-79
2020/12/22 01:45:30;;;;;;;21.07;12.33;;;;;;;-1.88;83.67;101681.59;1770059;80;21370;-79
2020/12/22 01:48:36;;;;;;;20.75;11.83;;;;;;;-1.88;83.60;101672.20;1771001;81;21318;-79
2020/12/22 01:51:42;;;;;;;20.43;11.63;;;;;;;-1.88;83.57;101666.84;1770862;81;21315;-79
2020/12/22 01:54:48;;;;;;;19.40;12.18;;;;;;;-1.91;83.53;101660.25;1769727;81;21320;-79
2020/12/22 01:57:54;;;;;;;23.90;12.88;;;;;;;-1.93;83.41;101658.11;1771087;81;21878;-79
2020/12/22 02:01:00;;;;;;;24.55;12.45;;;;;;;-1.96;83.36;101654.20;1771264;81;21332;-78
2020/12/22 02:04:09;;;;;;;22.05;12.00;;;;;;;-2.01;83.48;101649.51;1770808;81;21310;-78
2020/12/22 02:07:18;;;;;;;24.98;13.15;;;;;;;-2.02;83.56;101642.41;1769891;81;21822;-78
2020/12/22 02:10:23;;;;;;;14.75;10.32;;;;;;;-1.95;83.62;101643.87;1755213;81;21291;-79
2020/12/22 02:13:29;;;;;;;22.80;12.65;;;;;;;-1.91;83.51;101644.16;1771312;81;21378;-78
2020/12/22 02:16:35;;;;;;;21.23;13.03;;;;;;;-1.90;83.48;101637.85;1771467;81;21311;-79
2020/12/22 02:19:43;;;;;;;22.75;13.00;;;;;;;-1.92;83.39;101638.39;1771239;81;21295;-78
2020/12/22 02:22:47;;;;;;;19.60;11.95;;;;;;;-1.93;83.43;101644.70;1771417;81;21811;-79
2020/12/22 02:25:55;;;;;;;21.57;11.18;;;;;;;-1.92;83.55;101637.53;1769715;81;21185;-80
2020/12/22 02:29:02;;;;;;;22.80;11.63;;;;;;;-1.94;83.61;101632.20;1771382;81;21189;-79
2020/12/22 02:32:08;;;;;;;21.27;11.68;;;;;;;-1.92;83.67;101638.87;1771212;81;21334;-79
2020/12/22 02:35:08;;;;;;;23.18;12.58;;;;;;;-1.93;83.60;101631.73;1770321;81;21386;-78
2020/12/22 02:38:14;;;;;;;20.90;11.65;;;;;;;-1.95;83.67;101638.52;1770353;81;21240;-78
2020/12/22 02:41:22;;;;;;;23.70;11.28;;;;;;;-1.94;83.70;101640.25;1771284;81;21334;-78
2020/12/22 02:44:28;;;;;;;23.47;12.30;;;;;;;-1.92;83.67;101630.35;1770964;81;21304;-79
2020/12/22 02:47:36;;;;;;;20.00;11.95;;;;;;;-1.96;83.53;101642.14;1771085;81;21803;-79
2020/12/22 02:50:42;;;;;;;20.62;11.35;;;;;;;-2.00;83.46;101632.47;1771325;81;21287;-79
2020/12/22 02:53:47;;;;;;;19.52;10.75;;;;;;;-2.01;83.41;101625.38;1771272;81;21284;-79
2020/12/22 02:56:52;;;;;;;17.73;10.80;;;;;;;-2.04;83.25;101629.52;1771235;81;21812;-79
2020/12/22 02:59:59;;;;;;;19.00;11.15;;;;;;;-2.07;83.28;101635.89;1771304;81;21824;-78
2020/12/22 03:03:04;;;;;;;23.87;12.88;;;;;;;-2.08;83.30;101649.34;1770881;81;21220;-78
2020/12/22 03:06:10;;;;;;;21.52;12.93;;;;;;;-2.09;83.20;101640.42;1770067;81;21192;-78
2020/12/22 03:09:18;;;;;;;20.90;12.03;;;;;;;-2.07;83.28;101651.08;1771337;81;21299;-78
2020/12/22 03:12:24;;;;;;;14.33;9.30;;;;;;;-2.04;83.18;101646.07;1771377;81;21799;-78
2020/12/22 03:15:29;;;;;;;18.40;11.68;;;;;;;-2.04;82.96;101648.75;1770743;81;21875;-78
2020/12/22 03:18:37;;;;;;;16.40;9.80;;;;;;;-2.02;82.93;101645.52;1770998;81;21335;-78
2020/12/22 03:21:43;;;;;;;18.62;9.60;;;;;;;-1.99;82.80;101643.59;1771524;81;21603;-78
2020/12/22 03:24:51;;;;;;;21.23;12.07;;;;;;;-1.98;82.61;101649.36;1770922;81;21319;-78
2020/12/22 03:27:57;;;;;;;18.40;10.03;;;;;;;-1.99;82.35;101650.30;1771462;81;21295;-78
2020/12/22 03:31:03;;;;;;;18.12;10.95;;;;;;;-1.95;82.37;101647.90;1771451;81;21779;-78
2020/12/22 03:34:08;;;;;;;18.98;10.95;;;;;;;-1.94;82.09;101645.62;1770641;81;21997;-78
2020/12/22 03:37:19;;;;;;;14.78;9.23;;;;;;;-1.94;81.92;101646.95;1770873;81;21319;-78
2020/12/22 03:40:21;;;;;;;23.67;11.95;;;;;;;-1.92;81.90;101651.81;1770043;81;21292;-79
2020/12/22 03:43:27;;;;;;;17.02;10.00;;;;;;;-1.91;81.74;101642.81;1769946;81;21295;-78
2020/12/22 03:46:33;;;;;;;20.40;10.80;;;;;;;-1.91;81.72;101642.81;1770839;80;21359;-78
2020/12/22 03:49:32;;;;;;;18.98;11.00;;;;;;;-1.91;81.64;101641.95;1779070;80;21268;-78
2020/12/22 03:52:37;;;;;;;23.07;10.43;;;;;;;-1.93;81.52;101650.06;1779447;80;21834;-78
2020/12/22 03:55:43;;;;;;;19.62;11.90;;;;;;;-1.91;81.46;101644.63;1778045;80;21898;-78
2020/12/22 03:58:49;;;;;;;21.23;11.97;;;;;;;-1.89;81.51;101648.97;1777926;80;21295;-78
2020/12/22 04:01:55;;;;;;;23.90;12.13;;;;;;;-1.91;81.02;101658.04;1779615;80;21164;-78
2020/12/22 04:05:01;;;;;;;19.15;10.78;;;;;;;-1.98;81.05;101646.67;1778388;80;21212;-78
2020/12/22 04:08:01;;;;;;;23.25;11.30;;;;;;;-1.97;81.00;101648.92;1779665;80;21319;-78
2020/12/22 04:11:07;;;;;;;17.45;10.20;;;;;;;-2.01;80.98;101652.19;1779539;80;21307;-78
2020/12/22 04:14:12;;;;;;;16.82;10.78;;;;;;;-2.04;81.04;101650.96;1779143;80;21203;-78
2020/12/22 04:17:17;;;;;;;18.87;10.08;;;;;;;-2.06;81.08;101656.87;1777775;80;21862;-78
2020/12/22 04:20:24;;;;;;;17.92;9.75;;;;;;;-2.08;80.89;101652.02;1778215;80;21369;-78
2020/12/22 04:23:29;;;;;;;18.32;10.23;;;;;;;-2.09;80.77;101655.17;1779220;80;21818;-78
2020/12/22 04:26:37;;;;;;;18.80;10.50;;;;;;;-2.09;80.73;101655.17;1778649;80;21271;-78
2020/12/22 04:29:44;;;;;;;18.02;10.48;;;;;;;-2.08;80.54;101654.70;1779571;80;21204;-78
2020/12/22 04:32:50;;;;;;;17.48;10.23;;;;;;;-2.10;80.47;101652.09;1779281;80;21303;-78
2020/12/22 04:35:57;;;;;;;22.90;11.08;;;;;;;-2.15;80.24;101644.70;1778300;80;22216;-78
2020/12/22 04:39:02;;;;;;;16.37;9.03;;;;;;;-2.19;80.24;101644.42;1779508;80;21842;-78
2020/12/22 04:42:06;;;;;;;25.30;11.05;;;;;;;-2.20;80.47;101642.69;1779123;80;21302;-78
2020/12/22 04:45:12;;;;;;;17.98;10.72;;;;;;;-2.18;80.41;101639.93;1779243;80;21291;-78
2020/12/22 04:48:19;;;;;;;25.20;11.55;;;;;;;-2.18;80.55;101642.61;1772681;80;21862;-78
2020/12/22 04:51:26;;;;;;;23.12;11.53;;;;;;;-2.23;80.71;101646.81;1769729;81;21335;-78
2020/12/22 04:54:33;;;;;;;22.30;9.80;;;;;;;-2.19;80.83;101647.11;1771025;81;21352;-78
2020/12/22 04:57:40;;;;;;;21.17;11.40;;;;;;;-2.18;80.58;101654.20;1769577;81;21402;-78
2020/12/22 05:00:45;;;;;;;20.48;12.28;;;;;;;-2.24;80.45;101649.10;1770911;81;21854;-78
2020/12/22 05:03:50;;;;;;;20.27;11.68;;;;;;;-2.27;80.66;101655.91;1771233;81;21196;-79
2020/12/22 05:06:56;;;;;;;21.73;11.57;;;;;;;-2.27;80.67;101655.05;1770198;81;21291;-79
2020/12/22 05:10:02;;;;;;;22.40;11.43;;;;;;;-2.28;80.66;101657.33;1769621;81;21302;-78
2020/12/22 05:13:09;;;;;;;19.50;11.97;;;;;;;-2.32;80.54;101657.91;1771370;81;21287;-78
2020/12/22 05:16:13;;;;;;;24.67;12.40;;;;;;;-2.36;80.54;101650.45;1754107;81;21768;-78
2020/12/22 05:19:21;;;;;;;21.50;13.45;;;;;;;-2.40;80.74;101647.95;1771403;81;21699;-78
2020/12/22 05:22:29;;;;;;;19.73;10.95;;;;;;;-2.44;80.96;101648.56;1754831;81;21160;-78
2020/12/22 05:25:36;;;;;;;30.00;14.10;;;;;;;-2.42;81.13;101659.22;1754959;81;21248;-78
2020/12/22 05:28:42;;;;;;;24.75;13.55;;;;;;;-2.41;80.91;101661.83;1771400;81;21227;-78
2020/12/22 05:31:55;;;;;;;22.10;12.63;;;;;;;-2.42;80.79;101661.89;1754614;81;21295;-78
2020/12/22 05:35:02;;;;;;;18.32;11.78;;;;;;;-2.45;80.52;101660.19;1769899;81;21732;-78
2020/12/22 05:38:10;;;;;;;23.05;13.53;;;;;;;-2.46;80.46;101661.13;1769927;81;21342;-77
2020/12/22 05:41:16;;;;;;;25.43;12.82;;;;;;;-2.46;80.37;101665.62;1771589;81;21229;-77
2020/12/22 05:44:23;;;;;;;18.17;10.72;;;;;;;-2.48;80.55;101676.41;1771433;81;21814;-78
2020/12/22 05:47:30;;;;;;;24.20;13.22;;;;;;;-2.48;80.61;101676.41;1770682;81;21857;-78
2020/12/22 05:50:37;;;;;;;24.32;12.53;;;;;;;-2.50;80.68;101680.07;1769764;81;21303;-78
2020/12/22 05:53:51;;;;;;;22.22;13.05;;;;;;;-2.52;80.40;101675.25;1769917;81;21311;-79
2020/12/22 05:56:57;;;;;;;19.10;11.70;;;;;;;-2.59;80.25;101675.50;1771892;79;21295;-78
2020/12/22 06:00:03;;;;;;;25.92;13.18;;;;;;;-2.63;80.31;101689.06;1800092;79;21271;-79
2020/12/22 06:03:20;;;;;;;21.12;12.78;;;;;;;-2.65;80.33;101674.37;1782531;79;21255;-79
2020/12/22 06:06:26;;;;;;;24.98;13.53;;;;;;;-2.63;80.45;101675.67;1778291;79;21181;-79
2020/12/22 06:09:31;;;;;;;23.80;13.65;;;;;;;-2.60;80.26;101676.41;1800644;79;21342;-79
2020/12/22 06:12:39;;;;;;;18.85;11.73;;;;;;;-2.59;80.05;101678.61;1772517;79;21314;-78
2020/12/22 06:15:48;;;;;;;25.80;11.25;;;;;;;-2.58;79.96;101669.20;1773030;79;21304;-79
2020/12/22 06:18:56;;;;;;;21.77;12.35;;;;;;;-2.58;80.10;101678.58;1789309;79;21858;-79
2020/12/22 06:22:05;;;;;;;24.43;13.13;;;;;;;-2.56;79.92;101675.83;1776916;79;21630;-79
2020/12/22 06:25:11;;;;;;;20.48;11.50;;;;;;;-2.57;80.01;101684.34;1774443;79;21829;-79
2020/12/22 06:28:36;;;;;;;23.52;11.85;;;;;;;-2.60;79.55;101683.57;1791199;79;21315;-79
2020/12/22 06:31:42;;;;;;;27.67;15.35;;;;;;;-2.64;79.35;101688.63;1783277;79;21200;-79
2020/12/22 06:34:49;;;;;;;20.25;11.60;;;;;;;-2.69;79.47;101686.12;1783360;79;21287;-79
2020/12/22 06:37:57;;;;;;;20.82;12.95;;;;;;;-2.74;79.63;101689.45;1788315;78;21813;-79
2020/12/22 06:41:03;;;;;;;20.85;12.65;;;;;;;-2.70;79.87;101681.71;1750715;81;21273;-79
2020/12/22 06:44:29;;;;;;;22.60;13.25;;;;;;;-2.66;79.61;101681.14;1775527;79;21568;-79
2020/12/22 06:47:44;;;;;;;23.67;12.23;;;;;;;-2.65;79.48;101681.53;1752344;81;21856;-78
2020/12/22 06:50:50;;;;;;;30.25;14.50;;;;;;;-2.65;79.41;101678.39;1759826;79;21394;-79
2020/12/22 06:53:57;;;;;;;21.40;12.10;;;;;;;-2.62;79.47;101676.08;1756108;80;21369;-78
2020/12/22 06:57:04;;;;;;;21.35;13.03;;;;;;;-2.64;79.45;101681.94;1759082;80;21350;-79
2020/12/22 07:00:09;;;;;;;22.55;11.68;;;;;;;-2.59;79.51;101686.22;1751031;80;21347;-79
2020/12/22 07:03:24;;;;;;;26.50;14.05;;;;;;;-2.55;79.29;101679.38;1753941;81;21732;-79
2020/12/22 07:06:58;;;;;;;28.83;13.48;;;;;;;-2.55;79.24;101672.68;1756269;80;21280;-79
2020/12/22 07:10:11;;;;;;;31.73;13.80;;;;;;;-2.55;78.99;101676.23;1744592;80;21271;-79
2020/12/22 07:13:17;;;;;;;23.45;12.70;;;;;;;-2.66;79.07;101663.73;1752882;81;21284;-79
2020/12/22 07:16:25;;;;;;;25.97;13.03;;;;;;;-2.70;79.50;101657.61;1749969;80;21291;-79
2020/12/22 07:19:39;;;;;;;23.95;14.95;;;;;;;-2.65;79.63;101653.41;1736861;80;21197;-79
2020/12/22 07:22:46;;;;;;;28.98;14.50;;;;;;;-2.63;79.52;101659.12;1752915;80;21284;-79
2020/12/22 07:25:53;;;;;;;31.93;18.67;;;;;;;-2.59;79.33;101657.19;1751359;80;21311;-79
2020/12/22 07:28:58;;;;;;;33.42;14.93;;;;;;;-2.63;79.23;101655.11;1747091;81;21768;-78
2020/12/22 07:32:03;;;;;;;24.82;14.98;;;;;;;-2.69;79.31;101656.67;1747692;80;21330;-78
2020/12/22 07:35:10;;;;;;;34.27;15.88;;;;;;;-2.69;79.41;101653.12;1741613;80;21295;-79
2020/12/22 07:38:18;;;;;;;23.65;15.18;;;;;;;-2.63;79.55;101658.27;1745975;81;21299;-79
2020/12/22 07:41:33;;;;;;;25.43;15.68;;;;;;;-2.63;79.36;101660.94;1755202;81;21372;-79
2020/12/22 07:44:42;;;;;;;23.40;12.80;;;;;;;-2.66;79.27;101656.56;1757973;80;21307;-79
2020/12/22 07:47:46;;;;;;;23.92;14.25;;;;;;;-2.67;79.38;101654.82;1759410;81;21623;-79
2020/12/22 07:50:54;;;;;;;28.05;14.33;;;;;;;-2.66;79.49;101662.39;1757612;79;21874;-79
2020/12/22 07:54:09;;;;;;;20.97;12.70;;;;;;;-2.66;79.55;101659.70;1784142;79;21470;-78
2020/12/22 07:57:17;;;;;;;22.60;13.78;;;;;;;-2.63;79.78;101650.22;1786450;79;21267;-79
2020/12/22 08:00:23;;;;;;;22.45;13.30;;;;;;;-2.57;79.66;101653.53;1779991;79;21295;-79
2020/12/22 08:03:33;;;;;;;24.37;13.85;;;;;;;-2.54;79.54;101639.59;1782652;79;21280;-79
2020/12/22 08:06:42;;;;;;;23.35;13.30;;;;;;;-2.54;79.50;101651.64;1787315;79;21320;-79
2020/12/22 08:09:51;;;;;;;29.48;15.20;;;;;;;-2.50;79.50;101638.07;1784506;79;22426;-79
2020/12/22 08:13:00;;;;;;;23.85;13.75;;;;;;;-2.46;79.26;101642.84;1781811;79;21942;-79
2020/12/22 08:16:10;;;;;;;23.77;12.80;;;;;;;-2.45;79.25;101640.09;1780944;79;21550;-79
2020/12/22 08:19:17;;;;;;;25.88;14.68;;;;;;;-2.41;79.31;101648.42;1781295;79;21389;-79
2020/12/22 08:22:22;;;;;;;21.02;11.63;;;;;;;-2.36;78.76;101635.71;1777124;79;21724;-79
2020/12/22 08:25:29;;;;;;;23.02;12.65;;;;;;;-2.34;78.66;101633.86;1783518;79;21292;-79
2020/12/22 08:28:35;;;;;;;19.55;11.85;;;;;;;-2.27;78.27;101617.52;1743725;81;21311;-79
2020/12/22 08:31:41;;;;;;;31.27;14.68;;;;;;;-2.18;78.44;101615.33;1787409;79;21236;-80
2020/12/22 08:34:56;;;;;;;21.33;12.43;;;;;;;-2.07;78.43;101607.73;1789874;79;21173;-79
2020/12/22 08:38:00;;;;;;;21.87;13.30;;;;;;;-1.94;78.00;101622.82;1785440;79;21595;-80
2020/12/22 08:41:24;;;;;;;27.17;14.98;;;;;;;-1.94;77.22;101617.45;1787204;79;21649;-79
2020/12/22 08:44:33;;;;;;;26.62;15.45;;;;;;;-1.97;77.08;101612.72;1775135;79;21245;-79
2020/12/22 08:47:39;;;;;;;30.90;14.30;;;;;;;-2.03;77.03;101607.11;1777809;79;21253;-81
2020/12/22 08:50:58;;;;;;;20.65;12.05;;;;;;;-2.06;77.24;101615.31;1785915;79;21176;-80
2020/12/22 08:54:07;;;;;;;21.33;13.55;;;;;;;-2.03;77.29;101612.95;1783160;79;21883;-79
2020/12/22 08:57:23;;;;;;;24.90;14.38;;;;;;;-2.04;77.14;101606.72;1731883;81;21265;-80
2020/12/22 09:00:29;;;;;;;25.95;14.85;;;;;;;-2.06;77.50;101608.61;1714339;82;21299;-79
2020/12/22 09:03:36;;;;;;;30.90;16.15;;;;;;;-2.05;77.37;101598.28;1728292;82;21287;-79
2020/12/22 09:06:51;;;;;;;31.07;14.63;;;;;;;-2.04;77.25;101601.36;1785053;79;21734;-79
2020/12/22 09:09:57;;;;;;;26.87;14.58;;;;;;;-2.04;77.46;101594.66;1783903;79;21263;-79
2020/12/22 09:13:05;;;;;;;27.40;15.10;;;;;;;-2.06;77.45;101594.73;1777962;79;21812;-79
2020/12/22 09:16:11;;;;;;;26.40;15.32;;;;;;;-2.06;77.39;101590.70;1779551;79;21362;-78
2020/12/22 09:19:18;;;;;;;23.38;12.47;;;;;;;-2.11;77.46;101577.97;1785240;79;21172;-78
2020/12/22 09:22:34;;;;;;;21.10;12.20;;;;;;;-2.08;77.60;101579.63;1788168;79;21792;-79
2020/12/22 09:25:38;;;;;;;25.85;14.18;;;;;;;-1.96;77.68;101568.39;1775285;79;21319;-79
2020/12/22 09:28:45;;;;;;;25.92;13.35;;;;;;;-1.88;77.51;101567.60;1797604;79;21798;-79
2020/12/22 09:31:51;;;;;;;17.37;11.15;;;;;;;-1.84;76.83;101562.95;1783829;79;21279;-79
2020/12/22 09:34:57;;;;;;;20.82;12.82;;;;;;;-1.82;76.81;101565.12;1786771;79;21327;-79
2020/12/22 09:38:04;;;;;;;26.73;14.87;;;;;;;-1.84;76.27;101560.27;1782591;78;21605;-79
2020/12/22 09:41:12;;;;;;;27.62;15.00;;;;;;;-1.86;76.34;101555.45;1779817;79;21235;-79
2020/12/22 09:44:21;;;;;;;24.72;12.18;;;;;;;-1.86;76.57;101553.64;1775846;79;22479;-81
2020/12/22 09:47:27;;;;;;;22.82;13.38;;;;;;;-1.73;76.89;101558.48;1779113;79;21565;-78
2020/12/22 09:50:32;;;;;;;27.62;14.47;;;;;;;-1.69;76.20;101549.37;1787017;79;21332;-79
2020/12/22 09:53:39;;;;;;;24.55;12.20;;;;;;;-1.68;76.26;101545.73;1784137;79;21578;-78
2020/12/22 09:56:46;;;;;;;24.32;12.88;;;;;;;-1.67;76.09;101551.50;1789014;79;21318;-78
2020/12/22 09:59:52;;;;;;;20.15;10.95;;;;;;;-1.71;76.05;101546.73;1801865;79;21282;-79
2020/12/22 10:02:57;;;;;;;23.30;12.65;;;;;;;-1.71;76.13;101538.68;1796365;79;21300;-78
2020/12/22 10:06:04;;;;;;;27.55;12.75;;;;;;;-1.72;76.17;101536.08;1792439;79;22360;-79
2020/12/22 10:09:09;;;;;;;24.82;10.82;;;;;;;-1.76;76.42;101538.02;1792172;79;21291;-79
2020/12/22 10:12:14;;;;;;;21.17;10.60;;;;;;;-1.75;76.42;101530.36;1783413;79;21594;-79
2020/12/22 10:15:21;;;;;;;21.85;10.85;;;;;;;-1.72;76.42;101530.71;1786081;79;21287;-78
2020/12/22 10:18:26;;;;;;;20.35;10.08;;;;;;;-1.68;76.55;101530.51;1800018;79;21319;-79
2020/12/22 10:21:42;;;;;;;16.65;10.03;;;;;;;-1.64;76.51;101511.13;1831702;76;22286;-79
2020/12/22 10:24:54;;;;;;;16.95;10.13;;;;;;;-1.66;76.56;101500.44;1699420;83;21307;-79
2020/12/22 10:27:59;;;;;;;20.10;11.68;;;;;;;-1.58;76.52;101507.69;1687621;83;21349;-80
2020/12/22 10:31:08;;;;;;;23.15;10.70;;;;;;;-1.48;76.61;101497.40;1692934;83;21341;-79
2020/12/22 10:34:13;;;;;;;30.10;12.37;;;;;;;-1.38;76.17;101500.53;1704022;83;21341;-79
2020/12/22 10:37:21;;;;;;;25.88;11.30;;;;;;;-1.41;75.86;101509.61;1686418;83;21997;-79
2020/12/22 10:40:27;;;;;;;22.10;13.40;;;;;;;-1.43;75.71;101507.92;1677643;84;21224;-79
2020/12/22 10:43:32;;;;;;;24.63;13.50;;;;;;;-1.42;75.45;101510.52;1673635;83;21326;-79
2020/12/22 10:46:42;;;;;;;35.92;15.48;;;;;;;-1.48;75.49;101497.40;1672878;84;21204;-79
2020/12/22 10:49:48;;;;;;;24.20;12.63;;;;;;;-1.51;75.62;101498.00;1675735;84;21256;-79
2020/12/22 10:52:55;;;;;;;25.02;12.60;;;;;;;-1.49;75.75;101501.03;1676320;84;21406;-78
2020/12/22 10:56:11;;;;;;;26.40;12.43;;;;;;;-1.41;75.59;101500.66;1686666;83;21342;-79
2020/12/22 10:59:14;;;;;;;28.65;13.35;;;;;;;-1.32;75.56;101485.47;1688255;84;21787;-79
2020/12/22 11:02:20;;;;;;;27.42;13.35;;;;;;;-1.32;75.11;101485.47;1673748;84;21423;-79
2020/12/22 11:08:49;;;;;;;24.92;14.47;;;;;;;-1.21;74.59;101491.23;1670852;84;21309;-83
2020/12/22 11:11:54;;;;;;;27.02;14.20;;;;;;;-1.24;74.64;101479.75;1669451;84;22025;-79
2020/12/22 11:15:00;;;;;;;28.27;14.45;;;;;;;-1.35;74.62;101477.58;1669486;84;21342;-78
2020/12/22 11:18:07;;;;;;;25.52;14.25;;;;;;;-1.44;74.79;101484.24;1674271;84;21338;-79
2020/12/22 11:21:17;;;;;;;27.75;13.90;;;;;;;-1.57;74.96;101483.93;1671643;84;21335;-79
2020/12/22 11:24:22;;;;;;;;;;;;;;;-1.59;75.35;101481.80;1668660;84;21297;-79
2020/12/22 11:27:27;;;;;;;25.30;13.65;;;;;;;-1.62;75.49;101473.87;1670834;85;20294;-79
2020/12/22 11:30:33;;;;;;;24.25;12.80;;;;;;;-1.68;75.63;101475.98;1666145;85;21297;-79
2020/12/22 11:33:41;;;;;;;27.67;13.35;;;;;;;-1.78;76.24;101484.92;1667175;85;21303;-79
2020/12/22 11:37:01;;;;;;;25.37;12.80;;;;;;;-1.84;76.59;101476.66;1661241;85;21229;-79
2020/12/22 11:40:06;;;;;;;28.75;13.80;;;;;;;-1.81;76.75;101476.53;1661194;84;21238;-79
2020/12/22 11:43:12;;;;;;;27.32;14.10;;;;;;;-1.77;76.78;101487.13;1668260;84;21331;-79
2020/12/22 11:46:20;;;;;;;22.42;12.50;;;;;;;-1.73;76.92;101474.85;1667917;85;21892;-79
2020/12/22 11:49:27;;;;;;;21.37;11.95;;;;;;;-1.69;76.64;101479.61;1661168;85;21856;-79
2020/12/22 11:52:34;;;;;;;23.67;13.03;;;;;;;-1.76;76.54;101474.11;1664240;85;21904;-79
2020/12/22 11:55:40;;;;;;;23.42;12.88;;;;;;;-1.79;76.80;101469.74;1660930;84;21214;-80
2020/12/22 11:58:48;;;;;;;24.15;14.53;;;;;;;-1.86;76.98;101475.87;1670467;84;21289;-79
2020/12/22 12:01:54;;;;;;;23.83;12.20;;;;;;;-1.93;77.25;101470.39;1662864;85;21395;-79
2020/12/22 12:04:59;;;;;;;25.15;12.63;;;;;;;-1.94;77.36;101473.98;1660540;85;21320;-79
2020/12/22 12:08:05;;;;;;;23.83;13.83;;;;;;;-1.95;77.36;101477.61;1660053;85;22552;-79
2020/12/22 12:11:10;;;;;;;22.27;11.68;;;;;;;-1.95;77.68;101482.98;1649981;85;21208;-81
2020/12/22 12:14:17;;;;;;;22.07;12.10;;;;;;;-1.96;77.61;101475.88;1654689;84;21220;-79
2020/12/22 12:17:22;;;;;;;23.45;12.18;;;;;;;-2.00;77.67;101474.74;1661465;85;21317;-79
2020/12/22 12:20:28;;;;;;;21.73;11.50;;;;;;;-2.00;77.67;101479.62;1666954;84;21303;-79
2020/12/22 12:23:35;;;;;;;19.12;10.78;;;;;;;-2.01;77.56;101471.19;1670834;84;21304;-79
2020/12/22 12:26:42;;;;;;;27.27;13.35;;;;;;;-2.00;77.41;101484.99;1664624;85;21254;-79
2020/12/22 12:29:49;;;;;;;24.07;12.25;;;;;;;-1.99;77.46;101474.66;1669129;85;21364;-79
2020/12/22 12:32:55;;;;;;;20.50;11.12;;;;;;;-2.01;77.46;101482.39;1668671;85;21851;-79
2020/12/22 12:36:01;;;;;;;16.67;10.25;;;;;;;-2.04;77.54;101488.74;1664518;85;21795;-79
2020/12/22 12:39:06;;;;;;;20.80;11.75;;;;;;;-2.03;77.70;101485.59;1666451;85;21773;-79
2020/12/22 12:42:15;;;;;;;23.92;12.28;;;;;;;-2.01;77.54;101492.64;1668274;84;21199;-79
2020/12/22 12:45:22;;;;;;;16.37;9.63;;;;;;;-2.02;77.58;101486.88;1665814;85;21376;-79
2020/12/22 12:48:28;;;;;;;19.37;11.53;;;;;;;-1.98;77.60;101486.25;1656513;85;21215;-78
2020/12/22 12:51:35;;;;;;;26.68;12.78;;;;;;;-1.93;77.60;101493.63;1661485;84;21205;-79
2020/12/22 12:54:44;;;;;;;18.15;9.68;;;;;;;-1.87;77.34;101494.25;1662614;85;21333;-79
2020/12/22 12:57:49;;;;;;;18.85;10.15;;;;;;;-1.88;76.89;101489.83;1661438;85;22020;-79
2020/12/22 13:00:58;;;;;;;20.97;10.38;;;;;;;-1.90;76.68;101494.37;1670565;85;21384;-78
2020/12/22 13:04:05;;;;;;;20.95;10.90;;;;;;;-1.95;76.11;101498.20;1670921;85;21711;-78
2020/12/22 13:07:11;;;;;;;20.20;11.35;;;;;;;-2.09;75.61;101490.28;1663619;85;21333;-78
2020/12/22 13:10:18;;;;;;;26.15;12.37;;;;;;;-2.19;75.42;101492.97;1659450;85;21316;-78
2020/12/22 13:13:23;;;;;;;21.23;10.20;;;;;;;-2.29;75.62;101490.76;1668995;85;21207;-78
2020/12/22 13:16:31;;;;;;;20.62;11.68;;;;;;;-2.30;75.93;101497.06;1665861;84;21875;-79
2020/12/22 13:19:38;;;;;;;23.12;11.38;;;;;;;-2.29;75.68;101488.08;1667141;84;21327;-79
2020/12/22 13:22:46;;;;;;;20.40;11.63;;;;;;;-2.31;75.37;101489.46;1660432;85;21291;-79
2020/12/22 13:25:54;;;;;;;19.98;9.90;;;;;;;-2.35;75.46;101505.30;1670632;84;21312;-78
2020/12/22 13:29:00;;;;;;;23.47;11.90;;;;;;;-2.39;75.41;101499.19;1656737;84;21128;-77
2020/12/22 13:32:07;;;;;;;19.60;10.05;;;;;;;-2.41;75.54;101493.00;1656055;85;21337;-77
2020/12/22 13:35:13;;;;;;;26.68;10.95;;;;;;;-2.42;74.87;101497.09;1660264;85;21224;-77
2020/12/22 13:38:20;;;;;;;19.07;10.08;;;;;;;-2.46;74.54;101488.78;1651024;85;21872;-77
2020/12/22 13:41:25;;;;;;;20.70;10.40;;;;;;;-2.47;75.02;101492.40;1660270;85;21355;-78
2020/12/22 13:44:30;;;;;;;20.52;10.80;;;;;;;-2.48;75.12;101486.17;1653179;85;21363;-78
2020/12/22 13:47:38;;;;;;;20.12;10.32;;;;;;;-2.46;75.21;101485.63;1650646;85;21331;-78
2020/12/22 13:50:45;;;;;;;19.67;8.90;;;;;;;-2.45;75.04;101483.34;1658599;85;21291;-78
2020/12/22 13:53:51;;;;;;;23.35;10.60;;;;;;;-2.41;74.52;101480.08;1663183;85;21307;-78
2020/12/22 13:56:57;;;;;;;18.92;9.60;;;;;;;-2.44;73.78;101461.47;1660556;85;21612;-78
2020/12/22 14:00:03;;;;;;;19.15;10.03;;;;;;;-2.50;74.10;101466.59;1671741;84;21850;-78
2020/12/22 14:03:08;;;;;;;17.20;9.35;;;;;;;-2.52;74.14;101462.25;1657572;84;21317;-80
2020/12/22 14:06:18;;;;;;;19.98;10.05;;;;;;;-2.54;73.94;101458.75;1658612;84;21347;-78
2020/12/22 14:09:25;;;;;;;28.27;11.75;;;;;;;-2.60;73.81;101453.19;1670159;85;21322;-80
2020/12/22 14:12:31;;;;;;;20.43;9.60;;;;;;;-2.65;73.81;101459.20;1659882;84;21416;-80
2020/12/22 14:15:39;;;;;;;21.45;10.65;;;;;;;-2.70;73.75;101454.52;1659526;84;21327;-78